Attica, Michigan
Current Conditions -  °F | °C
As of 9:13 AM on Tuesday 27 Jan 2015 (Local Time) from KD95 Reporting Station
Light Snow Light Snow  
Wind Chill: 10°   Ceiling: 2600
Heat Index: 10°   Visibility: 7mi
Dew Point:   Wind: 3mph
Humidity: 91%   Direction: 330°NNW
Pressure: 30.1"   Gusts: NA
Location:  43.03°N, 83.17°W
Report Text: KD95 271413Z AUTO 33003KT 7SM -SN SCT017 BKN026 M12/M14 A3010 RMK AO2 T11251137
Loading
Personal Weather Stations






























Interactive Weather Map New forecast layout! Learn more

10-Day Weather Forecast

Advertisements
Track Severe Weather on mobile